createdAt,value
2018-06-05T00:01:11.304Z,36.80
2018-06-05T00:02:11.221Z,35.10
2018-06-05T00:04:04.502Z,37.00
2018-06-05T00:05:04.441Z,36.20
2018-06-05T00:06:57.740Z,34.70
2018-06-05T00:07:57.661Z,33.90
2018-06-05T00:09:50.952Z,33.10
2018-06-05T00:10:50.893Z,32.80
2018-06-05T00:12:44.182Z,31.60
2018-06-05T00:13:44.101Z,31.00
2018-06-05T00:15:37.383Z,32.60
2018-06-05T00:16:37.322Z,33.10
2018-06-05T00:18:30.620Z,32.10
2018-06-05T00:19:30.541Z,33.50
2018-06-05T00:21:23.944Z,32.70
2018-06-05T00:22:23.757Z,34.60
2018-06-05T00:24:17.039Z,37.20
2018-06-05T00:25:16.980Z,36.60
2018-06-05T00:27:10.346Z,37.80
2018-06-05T00:28:10.266Z,37.80
2018-06-05T00:30:03.544Z,37.80
2018-06-05T00:31:03.486Z,37.10
2018-06-05T00:32:56.784Z,36.50
2018-06-05T00:33:56.703Z,36.50
2018-06-05T00:35:50.087Z,37.60
2018-06-05T00:36:49.921Z,36.20
2018-06-05T00:38:43.323Z,36.10
2018-06-05T00:39:43.139Z,35.00
2018-06-05T00:41:36.437Z,34.40
2018-06-05T00:42:36.358Z,35.10
2018-06-05T00:44:29.637Z,34.60
2018-06-05T00:45:29.576Z,35.30
2018-06-05T00:47:22.869Z,33.90
2018-06-05T00:48:22.787Z,33.70
2018-06-05T00:50:16.071Z,35.10
2018-06-05T00:51:16.006Z,34.90
2018-06-05T00:53:09.304Z,34.70
2018-06-05T00:54:09.223Z,35.30
2018-06-05T00:56:02.607Z,37.10
2018-06-05T00:57:02.443Z,34.20
2018-06-05T00:58:55.742Z,35.50
2018-06-05T00:59:55.663Z,36.80
2018-06-05T01:01:48.959Z,34.90
2018-06-05T01:02:48.881Z,36.90
2018-06-05T01:04:42.160Z,37.00
2018-06-05T01:05:42.099Z,37.10
2018-06-05T01:07:35.392Z,37.00
2018-06-05T01:08:35.308Z,37.00
2018-06-05T01:10:29.193Z,40.00
2018-06-05T01:11:28.525Z,38.40
2018-06-05T01:13:21.827Z,38.00
2018-06-05T01:14:21.742Z,39.30
2018-06-05T01:16:15.025Z,40.60
2018-06-05T01:17:14.962Z,40.10
2018-06-05T01:19:08.347Z,39.20
2018-06-05T01:20:08.267Z,40.50
2018-06-05T01:22:01.568Z,38.80
2018-06-05T01:23:01.489Z,38.00
2018-06-05T01:24:54.763Z,38.10
2018-06-05T01:25:54.700Z,37.40
2018-06-05T01:27:47.992Z,39.20
2018-06-05T01:28:47.911Z,39.60
2018-06-05T01:30:42.191Z,37.60
2018-06-05T01:31:42.137Z,36.90
2018-06-05T01:33:36.427Z,37.80
2018-06-05T01:34:36.347Z,36.80
2018-06-05T01:36:29.625Z,38.90
2018-06-05T01:37:29.565Z,37.50
2018-06-05T01:39:22.864Z,37.60
2018-06-05T01:40:22.781Z,38.00
2018-06-05T01:42:16.185Z,37.10
2018-06-05T01:43:16.001Z,38.40
2018-06-05T01:45:10.157Z,38.50
2018-06-05T01:46:10.072Z,37.50
2018-06-05T01:48:03.464Z,37.10
2018-06-05T01:49:03.382Z,35.70
2018-06-05T01:50:56.660Z,34.70
2018-06-05T01:51:56.597Z,35.30
2018-06-05T01:53:50.000Z,35.60
2018-06-05T01:54:49.815Z,36.20
2018-06-05T01:56:43.093Z,33.70
2018-06-05T01:57:43.030Z,34.30
2018-06-05T01:59:36.330Z,34.40
2018-06-05T02:00:36.249Z,35.40
2018-06-05T02:02:29.651Z,35.10
2018-06-05T02:03:29.469Z,36.60
2018-06-05T02:05:22.745Z,36.10
2018-06-05T02:06:22.685Z,35.20
2018-06-05T02:08:15.976Z,36.60
2018-06-05T02:09:15.895Z,36.50
2018-06-05T02:11:09.176Z,34.10
2018-06-05T02:12:09.112Z,32.40
2018-06-05T02:14:03.516Z,30.70
2018-06-05T02:15:03.375Z,30.70
2018-06-05T02:16:57.654Z,29.60
2018-06-05T02:17:57.596Z,29.40
2018-06-05T02:19:50.891Z,30.00
2018-06-05T02:20:50.812Z,29.90
2018-06-05T02:22:44.117Z,29.40
2018-06-05T02:23:44.025Z,29.20
2018-06-05T02:25:37.439Z,29.90
2018-06-05T02:26:37.378Z,29.60
2018-06-05T02:28:30.674Z,29.90
2018-06-05T02:29:30.594Z,29.80
2018-06-05T02:31:23.871Z,31.80
2018-06-05T02:32:23.809Z,33.50
2018-06-05T02:34:17.143Z,31.70
2018-06-05T02:35:17.027Z,30.70
2018-06-05T02:37:10.411Z,31.00
2018-06-05T02:38:10.246Z,30.60
2018-06-05T02:40:03.540Z,27.90
2018-06-05T02:41:03.462Z,28.30
2018-06-05T02:42:56.757Z,27.30
2018-06-05T02:43:56.678Z,26.90
2018-06-05T02:45:50.561Z,27.50
2018-06-05T02:46:49.894Z,25.40
2018-06-05T02:48:43.191Z,25.20
2018-06-05T02:49:43.111Z,25.60
2018-06-05T02:51:36.388Z,26.40
2018-06-05T02:52:36.326Z,26.40
2018-06-05T02:54:29.729Z,25.70
2018-06-05T02:55:29.543Z,26.30
2018-06-05T02:57:22.813Z,28.00
2018-06-05T02:58:22.752Z,26.80
2018-06-05T03:00:16.051Z,31.00
2018-06-05T03:01:15.971Z,29.70
2018-06-05T03:03:09.457Z,31.00
2018-06-05T03:04:09.377Z,29.80
2018-06-05T03:06:02.661Z,32.30
2018-06-05T03:07:02.592Z,32.00
2018-06-05T03:08:55.889Z,33.10
2018-06-05T03:09:55.808Z,32.90
2018-06-05T03:11:49.089Z,33.40
2018-06-05T03:12:49.027Z,30.30
2018-06-05T03:14:42.427Z,31.40
2018-06-05T03:15:42.242Z,33.30
2018-06-05T03:17:35.625Z,32.70
2018-06-05T03:18:35.451Z,34.00
2018-06-05T03:20:28.854Z,34.40
2018-06-05T03:21:28.668Z,32.30
2018-06-05T03:23:21.965Z,34.50
2018-06-05T03:24:21.884Z,35.90
2018-06-05T03:26:15.163Z,34.30
2018-06-05T03:27:15.100Z,34.00
2018-06-05T03:29:08.399Z,34.40
2018-06-05T03:30:08.316Z,36.10
2018-06-05T03:32:01.596Z,33.10
2018-06-05T03:33:01.534Z,32.00
2018-06-05T03:34:55.936Z,31.40
2018-06-05T03:35:55.752Z,31.10
2018-06-05T03:37:49.021Z,30.40
2018-06-05T03:38:48.958Z,31.40
2018-06-05T03:40:42.255Z,29.60
2018-06-05T03:41:42.174Z,29.60
2018-06-05T03:43:36.472Z,28.60
2018-06-05T03:44:36.390Z,30.60
2018-06-05T03:46:29.669Z,30.80
2018-06-05T03:47:29.605Z,28.90
2018-06-05T03:49:22.899Z,26.30
2018-06-05T03:50:22.821Z,26.10
2018-06-05T03:52:16.208Z,25.30
2018-06-05T03:53:16.037Z,25.40
2018-06-05T03:55:09.456Z,25.30
2018-06-05T03:56:09.376Z,24.70
2018-06-05T03:58:02.648Z,24.70
2018-06-05T03:59:02.585Z,25.00
2018-06-05T04:00:55.986Z,23.50
2018-06-05T04:01:55.803Z,24.40
2018-06-05T04:03:49.101Z,24.00
2018-06-05T04:04:49.018Z,25.00
2018-06-05T04:06:42.301Z,24.00
2018-06-05T04:07:42.239Z,23.30
2018-06-05T04:09:35.641Z,24.10
2018-06-05T04:10:35.458Z,22.90
2018-06-05T04:12:28.841Z,23.30
2018-06-05T04:13:28.673Z,24.40
2018-06-05T04:15:21.970Z,23.40
2018-06-05T04:16:21.889Z,25.80
2018-06-05T04:18:15.189Z,25.50
2018-06-05T04:19:15.097Z,25.30
2018-06-05T04:21:09.002Z,25.30
2018-06-05T04:22:08.312Z,24.70
2018-06-05T04:24:01.617Z,25.10
2018-06-05T04:25:01.533Z,25.20
2018-06-05T04:26:54.810Z,24.30
2018-06-05T04:27:54.748Z,24.90
2018-06-05T04:29:48.048Z,24.30
2018-06-05T04:30:47.965Z,23.60
2018-06-05T04:32:41.446Z,24.50
2018-06-05T04:33:41.385Z,23.70
2018-06-05T04:35:34.705Z,23.80
2018-06-05T04:36:34.634Z,23.50
2018-06-05T04:38:27.899Z,24.00
2018-06-05T04:39:27.837Z,23.20
2018-06-05T04:41:21.137Z,23.80
2018-06-05T04:42:21.059Z,24.40
2018-06-05T04:44:14.350Z,24.10
2018-06-05T04:45:14.269Z,24.10
2018-06-05T04:47:07.549Z,24.10
2018-06-05T04:48:07.485Z,24.30
2018-06-05T04:50:00.783Z,24.60
2018-06-05T04:51:00.701Z,24.30
2018-06-05T04:52:53.976Z,24.30
2018-06-05T04:53:53.924Z,25.40
2018-06-05T04:55:47.215Z,25.30
2018-06-05T04:56:47.140Z,26.10
2018-06-05T04:58:40.412Z,23.60
2018-06-05T04:59:40.350Z,23.70
2018-06-05T05:01:33.751Z,24.90
2018-06-05T05:02:33.565Z,24.50
2018-06-05T05:04:26.967Z,24.20
2018-06-05T05:05:26.783Z,24.00
2018-06-05T05:07:20.164Z,24.10
2018-06-05T05:08:19.999Z,23.00
2018-06-05T05:10:13.464Z,23.50
2018-06-05T05:11:13.376Z,24.30
2018-06-05T05:13:06.655Z,24.40
2018-06-05T05:14:06.592Z,24.60
2018-06-05T05:15:59.894Z,24.20
2018-06-05T05:16:59.809Z,22.90
2018-06-05T05:18:53.085Z,23.10
2018-06-05T05:19:53.025Z,23.30
2018-06-05T05:21:46.445Z,22.50
2018-06-05T05:22:46.239Z,21.60
2018-06-05T05:24:39.536Z,23.70
2018-06-05T05:25:39.454Z,23.80
2018-06-05T05:27:32.726Z,25.10
2018-06-05T05:28:32.663Z,25.10
2018-06-05T05:30:25.960Z,24.60
2018-06-05T05:31:25.879Z,25.30
2018-06-05T05:33:19.156Z,25.30
2018-06-05T05:34:19.093Z,25.80
2018-06-05T05:36:12.497Z,25.60
2018-06-05T05:37:12.310Z,25.80
2018-06-05T05:39:05.585Z,27.20
2018-06-05T05:40:05.524Z,26.40
2018-06-05T05:41:58.927Z,25.60
2018-06-05T05:42:58.740Z,25.00
2018-06-05T05:44:52.142Z,25.80
2018-06-05T05:45:51.957Z,25.30
2018-06-05T05:47:45.442Z,25.40
2018-06-05T05:48:45.380Z,24.90
2018-06-05T05:50:38.675Z,23.90
2018-06-05T05:51:38.597Z,23.30
2018-06-05T05:53:31.978Z,22.60
2018-06-05T05:54:31.822Z,22.70
2018-06-05T05:56:25.105Z,21.00
2018-06-05T05:57:25.034Z,20.40
2018-06-05T05:59:18.312Z,21.20
2018-06-05T06:00:18.253Z,20.80
2018-06-05T06:02:11.547Z,20.20
2018-06-05T06:03:11.466Z,21.00
2018-06-05T06:05:04.766Z,20.10
2018-06-05T06:06:04.683Z,20.00
2018-06-05T06:07:57.951Z,19.00
2018-06-05T06:08:57.889Z,19.00
2018-06-05T06:10:51.300Z,19.30
2018-06-05T06:11:51.107Z,20.10
2018-06-05T06:13:44.385Z,20.10
2018-06-05T06:14:44.323Z,20.10
2018-06-05T06:16:37.723Z,20.00
2018-06-05T06:17:37.539Z,21.40
2018-06-05T06:19:30.814Z,21.00
2018-06-05T06:20:30.757Z,20.00
2018-06-05T06:22:24.049Z,21.50
2018-06-05T06:23:23.971Z,21.20
2018-06-05T06:25:17.462Z,21.10
2018-06-05T06:26:17.376Z,21.00
2018-06-05T06:28:10.659Z,21.20
2018-06-05T06:29:10.593Z,20.80
2018-06-05T06:31:03.891Z,22.30
2018-06-05T06:32:03.810Z,22.60
2018-06-05T06:33:57.088Z,23.50
2018-06-05T06:34:57.025Z,23.30
2018-06-05T06:36:50.325Z,25.10
2018-06-05T06:37:50.243Z,25.50
2018-06-05T06:39:43.522Z,25.50
2018-06-05T06:40:43.460Z,26.60
2018-06-05T06:42:36.759Z,24.70
2018-06-05T06:43:36.676Z,24.40
2018-06-05T06:45:29.978Z,22.90
2018-06-05T06:46:29.896Z,24.20
2018-06-05T06:48:23.167Z,27.10
2018-06-05T06:49:23.105Z,26.80
2018-06-05T06:51:16.406Z,26.60
2018-06-05T06:52:16.324Z,26.70
2018-06-05T06:54:10.479Z,27.80
2018-06-05T06:55:10.390Z,28.90
2018-06-05T06:57:03.692Z,29.10
2018-06-05T06:58:03.612Z,27.70
2018-06-05T06:59:56.889Z,29.60
2018-06-05T07:00:56.829Z,27.60
2018-06-05T07:02:50.128Z,28.20
2018-06-05T07:03:50.048Z,27.20
2018-06-05T07:05:43.463Z,27.10
2018-06-05T07:06:43.382Z,26.90
2018-06-05T07:08:36.663Z,28.60
2018-06-05T07:09:36.602Z,28.90
2018-06-05T07:11:29.905Z,26.80
2018-06-05T07:12:29.828Z,29.50
2018-06-05T07:14:23.104Z,28.70
2018-06-05T07:15:23.043Z,29.10
2018-06-05T07:17:16.341Z,28.40
2018-06-05T07:18:16.307Z,28.30
2018-06-05T07:20:09.542Z,28.50
2018-06-05T07:21:09.480Z,28.60
2018-06-05T07:23:02.782Z,28.10
2018-06-05T07:24:02.716Z,27.70
2018-06-05T07:25:55.991Z,27.70
2018-06-05T07:26:55.908Z,30.20
2018-06-05T07:28:49.294Z,27.30
2018-06-05T07:29:49.121Z,27.80
2018-06-05T07:31:42.411Z,27.40
2018-06-05T07:32:42.328Z,27.40
2018-06-05T07:34:35.597Z,26.50
2018-06-05T07:35:35.543Z,28.10
2018-06-05T07:37:28.835Z,29.30
2018-06-05T07:38:28.758Z,28.50
2018-06-05T07:40:22.034Z,27.40
2018-06-05T07:41:21.976Z,28.50
2018-06-05T07:43:15.461Z,30.00
2018-06-05T07:44:15.382Z,29.90
2018-06-05T07:46:08.690Z,28.80
2018-06-05T07:47:08.601Z,28.60
2018-06-05T07:49:01.983Z,29.10
2018-06-05T07:50:01.891Z,29.30
2018-06-05T07:51:55.119Z,29.70
2018-06-05T07:52:55.037Z,30.30
2018-06-05T07:54:48.316Z,30.30
2018-06-05T07:55:48.255Z,31.60
2018-06-05T07:57:41.548Z,30.90
2018-06-05T07:58:41.468Z,30.20
2018-06-05T08:00:34.739Z,28.70
2018-06-05T08:01:34.682Z,29.90
2018-06-05T08:03:27.967Z,28.00
2018-06-05T08:04:27.888Z,27.20
2018-06-05T08:06:21.199Z,28.70
2018-06-05T08:07:21.119Z,29.50
2018-06-05T08:09:14.388Z,28.90
2018-06-05T08:10:14.329Z,29.10
2018-06-05T08:12:07.626Z,30.20
2018-06-05T08:13:07.540Z,29.00
2018-06-05T08:15:00.809Z,29.10
2018-06-05T08:16:00.749Z,28.40
2018-06-05T08:17:54.043Z,27.90
2018-06-05T08:18:53.961Z,26.30
2018-06-05T08:20:47.244Z,27.70
2018-06-05T08:21:47.172Z,28.90
2018-06-05T08:23:40.476Z,28.70
2018-06-05T08:24:40.396Z,28.90
2018-06-05T08:26:33.684Z,28.40
2018-06-05T08:27:33.608Z,28.20
2018-06-05T08:29:26.988Z,29.20
2018-06-05T08:30:26.818Z,29.30
2018-06-05T08:32:20.109Z,28.90
2018-06-05T08:33:20.029Z,27.90
2018-06-05T08:35:13.414Z,29.80
2018-06-05T08:36:13.271Z,29.50
2018-06-05T08:38:06.561Z,28.60
2018-06-05T08:39:06.482Z,28.80
2018-06-05T08:40:59.865Z,26.50
2018-06-05T08:41:59.697Z,26.20
2018-06-05T08:43:53.098Z,25.60
2018-06-05T08:44:52.907Z,26.20
2018-06-05T08:46:46.205Z,25.20
2018-06-05T08:47:46.128Z,24.10
2018-06-05T08:49:39.400Z,23.30
2018-06-05T08:50:39.340Z,24.30
2018-06-05T08:52:32.743Z,22.10
2018-06-05T08:53:32.552Z,21.10
2018-06-05T08:55:25.826Z,22.40
2018-06-05T08:56:25.766Z,22.20
2018-06-05T08:58:19.060Z,24.00
2018-06-05T08:59:18.979Z,23.70
2018-06-05T09:01:12.252Z,21.70
2018-06-05T09:02:12.192Z,22.00
2018-06-05T09:04:05.487Z,24.00
2018-06-05T09:05:05.403Z,22.90
2018-06-05T09:06:58.806Z,23.10
2018-06-05T09:07:58.629Z,22.40
2018-06-05T09:09:51.903Z,22.80
2018-06-05T09:10:51.858Z,22.10
2018-06-05T09:12:45.181Z,22.30
2018-06-05T09:13:45.054Z,23.80
2018-06-05T09:15:38.331Z,20.70
2018-06-05T09:16:38.266Z,20.50
2018-06-05T09:18:31.557Z,21.00
2018-06-05T09:19:31.478Z,20.00
2018-06-05T09:21:24.759Z,21.40
2018-06-05T09:22:24.694Z,20.70
2018-06-05T09:24:17.991Z,21.70
2018-06-05T09:25:17.903Z,21.30
2018-06-05T09:27:11.199Z,22.60
2018-06-05T09:28:11.117Z,21.30
2018-06-05T09:30:04.384Z,21.30
2018-06-05T09:31:04.327Z,21.50
2018-06-05T09:32:57.730Z,21.40
2018-06-05T09:33:57.539Z,20.50
2018-06-05T09:35:50.927Z,21.80
2018-06-05T09:36:50.755Z,20.80
2018-06-05T09:38:44.044Z,21.90
2018-06-05T09:39:43.966Z,23.60
2018-06-05T09:41:37.333Z,22.40
2018-06-05T09:42:37.275Z,23.00
2018-06-05T09:44:30.678Z,21.80
2018-06-05T09:45:30.484Z,22.60
2018-06-05T09:47:23.777Z,22.00
2018-06-05T09:48:23.698Z,22.00
2018-06-05T09:50:16.970Z,22.10
2018-06-05T09:51:16.910Z,20.10
2018-06-05T09:53:10.204Z,21.30
2018-06-05T09:54:10.124Z,21.70
2018-06-05T09:56:03.508Z,21.00
2018-06-05T09:57:03.340Z,21.10
2018-06-05T09:58:56.630Z,22.00
2018-06-05T09:59:56.549Z,20.70
2018-06-05T10:01:49.823Z,21.10
2018-06-05T10:02:49.766Z,21.40
2018-06-05T10:04:43.061Z,19.70
2018-06-05T10:05:42.981Z,19.70
2018-06-05T10:07:36.276Z,19.90
2018-06-05T10:08:36.196Z,19.70
2018-06-05T10:10:29.470Z,19.90
2018-06-05T10:11:29.410Z,18.70
2018-06-05T10:13:22.705Z,19.30
2018-06-05T10:14:22.624Z,19.10
2018-06-05T10:16:15.901Z,18.80
2018-06-05T10:17:15.848Z,18.50
2018-06-05T10:19:10.130Z,19.50
2018-06-05T10:20:10.051Z,19.10
2018-06-05T10:22:03.331Z,19.40
2018-06-05T10:23:03.278Z,18.60
2018-06-05T10:24:56.564Z,19.10
2018-06-05T10:25:56.485Z,18.60
2018-06-05T10:27:49.815Z,18.00
2018-06-05T10:28:49.709Z,18.60
2018-06-05T10:30:42.979Z,18.70
2018-06-05T10:31:42.917Z,20.60
2018-06-05T10:33:36.221Z,19.10
2018-06-05T10:34:36.142Z,18.50
2018-06-05T10:36:29.432Z,18.90
2018-06-05T10:37:29.376Z,18.70
2018-06-05T10:39:22.664Z,20.30
2018-06-05T10:40:22.587Z,18.80
2018-06-05T10:42:15.865Z,18.50
2018-06-05T10:43:15.803Z,18.30
2018-06-05T10:45:09.111Z,18.90
2018-06-05T10:46:09.029Z,18.80
2018-06-05T10:48:02.428Z,18.60
2018-06-05T10:49:02.238Z,18.30
2018-06-05T10:50:55.641Z,19.20
2018-06-05T10:51:55.470Z,18.60
2018-06-05T10:53:48.811Z,18.70
2018-06-05T10:54:48.703Z,19.80
2018-06-05T10:56:41.981Z,18.10
2018-06-05T10:57:41.921Z,18.00
2018-06-05T10:59:35.231Z,20.20
2018-06-05T11:00:35.152Z,18.50
2018-06-05T11:02:28.481Z,18.80
2018-06-05T11:03:28.425Z,19.30
2018-06-05T11:05:21.733Z,19.60
2018-06-05T11:06:21.642Z,19.40
2018-06-05T11:08:15.051Z,20.30
2018-06-05T11:09:14.874Z,19.70
2018-06-05T11:11:08.273Z,19.90
2018-06-05T11:12:08.111Z,18.30
2018-06-05T11:14:01.430Z,19.70
2018-06-05T11:15:01.364Z,19.30
2018-06-05T11:16:54.625Z,18.90
2018-06-05T11:17:54.563Z,17.70
2018-06-05T11:19:47.869Z,17.60
2018-06-05T11:20:47.796Z,18.30
2018-06-05T11:22:41.086Z,19.30
2018-06-05T11:23:41.067Z,19.50
2018-06-05T11:25:34.319Z,20.40
2018-06-05T11:26:34.240Z,20.00
2018-06-05T11:28:27.546Z,18.50
2018-06-05T11:29:27.469Z,19.60
2018-06-05T11:31:20.743Z,19.40
2018-06-05T11:32:20.690Z,19.30
2018-06-05T11:34:13.986Z,19.00
2018-06-05T11:35:13.909Z,19.50
2018-06-05T11:37:07.189Z,18.70
2018-06-05T11:38:07.129Z,18.90
2018-06-05T11:40:00.426Z,19.00
2018-06-05T11:41:00.350Z,19.10
2018-06-05T11:42:53.739Z,20.50
2018-06-05T11:43:53.570Z,20.30
2018-06-05T11:45:46.869Z,19.40
2018-06-05T11:46:46.793Z,18.80
2018-06-05T11:48:40.090Z,19.20
2018-06-05T11:49:40.012Z,18.60
2018-06-05T11:51:33.331Z,19.10
2018-06-05T11:52:33.269Z,19.40
2018-06-05T11:54:26.627Z,20.40
2018-06-05T11:55:26.495Z,19.60
2018-06-05T11:57:19.772Z,19.40
2018-06-05T11:58:19.715Z,20.30
2018-06-05T12:00:13.126Z,20.10
2018-06-05T12:01:12.936Z,19.80
2018-06-05T12:03:06.326Z,18.80
2018-06-05T12:04:06.163Z,20.30
2018-06-05T12:05:59.463Z,19.30
2018-06-05T12:06:59.387Z,19.50
2018-06-05T12:08:52.694Z,19.80
2018-06-05T12:09:52.624Z,19.80
2018-06-05T12:11:45.912Z,20.40
2018-06-05T12:12:45.859Z,20.20
2018-06-05T12:14:39.262Z,20.20
2018-06-05T12:15:39.084Z,20.40
2018-06-05T12:17:32.475Z,22.30
2018-06-05T12:18:32.314Z,20.70
2018-06-05T12:20:25.616Z,20.90
2018-06-05T12:21:25.531Z,22.20
2018-06-05T12:23:18.947Z,22.50
2018-06-05T12:24:18.754Z,22.00
2018-06-05T12:26:12.051Z,21.00
2018-06-05T12:27:11.974Z,21.50
2018-06-05T12:29:05.351Z,21.30
2018-06-05T12:30:05.276Z,21.50
2018-06-05T12:31:58.664Z,22.90
2018-06-05T12:32:58.495Z,23.30
2018-06-05T12:34:51.904Z,21.70
2018-06-05T12:35:51.716Z,22.20
2018-06-05T12:37:44.504Z,22.00
2018-06-05T12:38:44.446Z,21.00
2018-06-05T12:40:37.855Z,21.90
2018-06-05T12:41:37.679Z,21.50
2018-06-05T12:43:30.942Z,21.80
2018-06-05T12:44:30.887Z,20.90
2018-06-05T12:46:24.189Z,20.90
2018-06-05T12:47:24.109Z,21.60
2018-06-05T12:49:17.407Z,21.20
2018-06-05T12:50:17.332Z,20.80
2018-06-05T12:52:10.612Z,21.50
2018-06-05T12:53:10.552Z,21.30
2018-06-05T12:55:03.870Z,22.20
2018-06-05T12:56:03.850Z,22.20
2018-06-05T12:57:57.082Z,22.70
2018-06-05T12:58:57.017Z,22.10
2018-06-05T13:00:50.425Z,20.60
2018-06-05T13:01:50.273Z,21.80
2018-06-05T13:03:43.556Z,22.00
2018-06-05T13:04:43.493Z,21.80
2018-06-05T13:06:36.788Z,23.40
2018-06-05T13:07:36.739Z,22.90
2018-06-05T13:09:30.011Z,23.50
2018-06-05T13:10:29.934Z,22.10
2018-06-05T13:12:23.320Z,21.60
2018-06-05T13:13:23.151Z,22.40
2018-06-05T13:15:16.448Z,21.30
2018-06-05T13:16:16.371Z,21.20
2018-06-05T13:18:09.680Z,22.70
2018-06-05T13:19:09.620Z,21.90
2018-06-05T13:21:02.916Z,23.00
2018-06-05T13:22:02.840Z,22.60
2018-06-05T13:23:56.120Z,22.20
2018-06-05T13:24:56.061Z,22.40
2018-06-05T13:26:49.470Z,21.40
2018-06-05T13:27:49.282Z,21.90
2018-06-05T13:29:42.579Z,21.90
2018-06-05T13:30:42.502Z,21.00
2018-06-05T13:32:36.788Z,22.50
2018-06-05T13:33:36.723Z,20.60
2018-06-05T13:35:30.013Z,19.70
2018-06-05T13:36:29.945Z,20.70
2018-06-05T13:38:23.229Z,21.70
2018-06-05T13:39:23.169Z,20.10
2018-06-05T13:41:16.583Z,21.30
2018-06-05T13:42:16.400Z,20.30
2018-06-05T13:44:09.793Z,20.90
2018-06-05T13:45:09.628Z,20.70
2018-06-05T13:47:02.920Z,21.40
2018-06-05T13:48:02.845Z,21.30
2018-06-05T13:49:56.154Z,21.20
2018-06-05T13:50:56.071Z,21.60
2018-06-05T13:52:49.347Z,22.30
2018-06-05T13:53:49.293Z,22.20
2018-06-05T13:55:42.596Z,20.90
2018-06-05T13:56:42.514Z,21.50
2018-06-05T13:58:35.794Z,22.80
2018-06-05T13:59:35.739Z,22.90
2018-06-05T14:01:29.044Z,21.30
2018-06-05T14:02:28.963Z,22.20
2018-06-05T14:04:22.334Z,21.50
2018-06-05T14:05:22.280Z,22.10
2018-06-05T14:07:15.579Z,21.00
2018-06-05T14:08:15.501Z,20.90
2018-06-05T14:10:08.892Z,22.00
2018-06-05T14:11:08.726Z,22.50
2018-06-05T14:13:02.026Z,23.30
2018-06-05T14:14:01.963Z,22.90
2018-06-05T14:15:55.359Z,21.70
2018-06-05T14:16:55.172Z,22.30
2018-06-05T14:18:48.453Z,23.10
2018-06-05T14:19:48.396Z,22.90
2018-06-05T14:21:41.694Z,21.60
2018-06-05T14:22:41.620Z,20.40
2018-06-05T14:24:35.012Z,20.60
2018-06-05T14:25:34.840Z,20.80
2018-06-05T14:27:28.147Z,20.70
2018-06-05T14:28:28.063Z,19.80
2018-06-05T14:30:21.461Z,21.80
2018-06-05T14:31:21.293Z,20.30
2018-06-05T14:33:14.592Z,21.60
2018-06-05T14:34:14.516Z,22.10
2018-06-05T14:36:07.788Z,20.40
2018-06-05T14:37:07.738Z,20.30
2018-06-05T14:39:01.039Z,21.30
2018-06-05T14:40:00.966Z,22.00
2018-06-05T14:41:54.352Z,22.30
2018-06-05T14:42:54.271Z,22.30
2018-06-05T14:44:47.553Z,21.10
2018-06-05T14:45:47.496Z,21.10
2018-06-05T14:47:40.795Z,21.90
2018-06-05T14:48:40.719Z,22.30
2018-06-05T14:50:34.002Z,20.40
2018-06-05T14:51:33.939Z,21.70
2018-06-05T14:53:28.249Z,21.60
2018-06-05T14:54:28.162Z,22.00
2018-06-05T14:56:21.442Z,21.50
2018-06-05T14:57:21.384Z,22.00
2018-06-05T14:59:14.683Z,22.50
2018-06-05T15:00:14.606Z,22.60
2018-06-05T15:02:07.905Z,21.50
2018-06-05T15:03:07.822Z,21.60
2018-06-05T15:05:01.208Z,22.40
2018-06-05T15:06:01.039Z,23.20
2018-06-05T15:07:54.353Z,22.80
2018-06-05T15:08:54.275Z,22.30
2018-06-05T15:10:47.664Z,21.50
2018-06-05T15:11:47.495Z,20.90
2018-06-05T15:13:40.793Z,21.80
2018-06-05T15:14:40.710Z,21.20
2018-06-05T15:16:33.996Z,21.20
2018-06-05T15:17:33.929Z,21.70
2018-06-05T15:19:27.225Z,22.10
2018-06-05T15:20:27.148Z,21.40
2018-06-05T15:22:20.424Z,22.20
2018-06-05T15:23:20.367Z,21.20
2018-06-05T15:25:13.660Z,21.20
2018-06-05T15:26:13.585Z,22.90
2018-06-05T15:28:06.900Z,22.50
2018-06-05T15:29:06.807Z,22.60
2018-06-05T15:31:00.192Z,20.90
2018-06-05T15:32:00.024Z,21.80
2018-06-05T15:33:53.450Z,21.50
2018-06-05T15:34:53.242Z,21.30
2018-06-05T15:36:46.630Z,21.80
2018-06-05T15:37:46.461Z,22.10
2018-06-05T15:39:39.868Z,22.00
2018-06-05T15:40:39.681Z,22.20
2018-06-05T15:42:32.950Z,21.90
2018-06-05T15:43:32.899Z,20.60
2018-06-05T15:45:26.196Z,21.60
2018-06-05T15:46:26.120Z,23.30
2018-06-05T15:48:19.398Z,23.20
2018-06-05T15:49:19.342Z,22.80
2018-06-05T15:51:12.639Z,21.20
2018-06-05T15:52:12.569Z,21.70
2018-06-05T15:54:05.860Z,22.40
2018-06-05T15:55:05.784Z,22.90
2018-06-05T15:56:59.061Z,22.30
2018-06-05T15:57:59.008Z,22.10
2018-06-05T15:59:52.359Z,22.60
2018-06-05T16:00:52.282Z,21.80
2018-06-05T16:02:45.558Z,21.10
2018-06-05T16:03:45.501Z,21.70
2018-06-05T16:05:38.916Z,21.40
2018-06-05T16:06:38.722Z,21.40
2018-06-05T16:08:32.001Z,22.20
2018-06-05T16:09:31.942Z,22.50
2018-06-05T16:11:25.242Z,21.40
2018-06-05T16:12:25.161Z,22.10
2018-06-05T16:14:18.466Z,22.30
2018-06-05T16:15:18.382Z,22.20
2018-06-05T16:17:11.771Z,22.30
2018-06-05T16:18:11.602Z,23.30
2018-06-05T16:20:04.909Z,23.80
2018-06-05T16:21:04.840Z,23.70
2018-06-05T16:22:58.121Z,21.70
2018-06-05T16:23:58.079Z,23.60
2018-06-05T16:25:51.471Z,22.60
2018-06-05T16:26:51.291Z,22.80
2018-06-05T16:28:44.580Z,23.00
2018-06-05T16:29:44.642Z,22.90
2018-06-05T16:31:37.829Z,22.70
2018-06-05T16:32:37.752Z,21.60
2018-06-05T16:34:31.040Z,22.00
2018-06-05T16:35:30.984Z,22.90
2018-06-05T16:37:24.280Z,21.60
2018-06-05T16:38:24.205Z,21.00
2018-06-05T16:40:17.510Z,22.20
2018-06-05T16:41:17.438Z,22.00
2018-06-05T16:43:10.724Z,23.40
2018-06-05T16:44:10.664Z,22.40
2018-06-05T16:46:03.972Z,21.30
2018-06-05T16:47:03.896Z,21.10
2018-06-05T16:48:57.183Z,20.30
2018-06-05T16:49:57.125Z,21.50
2018-06-05T16:51:50.432Z,21.90
2018-06-05T16:52:50.360Z,22.00
2018-06-05T16:54:43.744Z,21.80
2018-06-05T16:55:43.593Z,21.00
2018-06-05T16:57:36.888Z,21.50
2018-06-05T16:58:36.844Z,21.50
2018-06-05T17:00:30.101Z,20.90
2018-06-05T17:01:30.044Z,20.90
2018-06-05T17:03:23.351Z,21.20
2018-06-05T17:04:23.335Z,20.50
2018-06-05T17:06:16.582Z,20.30
2018-06-05T17:07:16.505Z,20.70
2018-06-05T17:09:09.797Z,21.40
2018-06-05T17:10:09.740Z,21.00
2018-06-05T17:12:03.045Z,20.40
2018-06-05T17:13:02.968Z,20.20
2018-06-05T17:14:56.358Z,20.70
2018-06-05T17:15:56.278Z,19.70
2018-06-05T17:17:49.575Z,19.20
2018-06-05T17:18:49.500Z,19.50
2018-06-05T17:20:42.797Z,18.50
2018-06-05T17:21:42.735Z,19.80
2018-06-05T17:23:36.044Z,18.70
2018-06-05T17:24:35.964Z,19.90
2018-06-05T17:26:29.249Z,19.20
2018-06-05T17:27:29.238Z,18.90
2018-06-05T17:29:22.499Z,19.30
2018-06-05T17:30:22.421Z,19.40
2018-06-05T17:32:15.728Z,19.20
2018-06-05T17:33:15.652Z,18.80
2018-06-05T17:35:08.949Z,18.00
2018-06-05T17:36:08.883Z,17.80
2018-06-05T17:38:02.183Z,18.20
2018-06-05T17:39:02.111Z,17.40
2018-06-05T17:40:55.393Z,19.40
2018-06-05T17:41:55.338Z,18.90
2018-06-05T17:43:48.643Z,17.70
2018-06-05T17:44:48.562Z,17.60
2018-06-05T17:46:41.854Z,16.50
2018-06-05T17:47:41.796Z,16.70
2018-06-05T17:49:35.115Z,16.40
2018-06-05T17:50:35.027Z,16.40
2018-06-05T17:52:28.332Z,16.90
2018-06-05T17:53:28.276Z,16.80
2018-06-05T17:55:21.582Z,16.30
2018-06-05T17:56:21.506Z,16.00
2018-06-05T17:58:14.807Z,15.40
2018-06-05T17:59:14.728Z,15.20
2018-06-05T18:01:08.021Z,16.40
2018-06-05T18:02:07.960Z,16.60
2018-06-05T18:04:01.323Z,15.10
2018-06-05T18:05:01.192Z,15.80
2018-06-05T18:06:54.477Z,16.10
2018-06-05T18:07:54.424Z,16.50
2018-06-05T18:09:47.828Z,15.80
2018-06-05T18:10:47.649Z,16.40
2018-06-05T18:12:41.038Z,15.60
2018-06-05T18:13:40.881Z,15.50
2018-06-05T18:15:34.197Z,16.10
2018-06-05T18:16:34.121Z,16.10
2018-06-05T18:18:27.406Z,16.60
2018-06-05T18:19:27.353Z,16.00
2018-06-05T18:21:20.657Z,15.00
2018-06-05T18:22:20.579Z,16.20
2018-06-05T18:24:13.985Z,16.60
2018-06-05T18:25:13.807Z,16.10
2018-06-05T18:27:07.094Z,15.70
2018-06-05T18:28:07.042Z,16.60
2018-06-05T18:30:00.355Z,16.60
2018-06-05T18:31:00.276Z,16.40
2018-06-05T18:32:53.569Z,15.80
2018-06-05T18:33:53.513Z,15.70
2018-06-05T18:35:46.824Z,16.10